sensor_id;sensor_type;location;lat;lon;timestamp;temperature;humidity
8662;DHT22;29684;47.722;9.388;2022-10-16T00:02:28;12.60;99.90
8662;DHT22;29684;47.722;9.388;2022-10-16T00:05:12;12.60;99.90
8662;DHT22;29684;47.722;9.388;2022-10-16T00:07:56;12.50;99.90
8662;DHT22;29684;47.722;9.388;2022-10-16T00:10:40;12.60;99.90
8662;DHT22;29684;47.722;9.388;2022-10-16T00:13:24;12.40;99.90
8662;DHT22;29684;47.722;9.388;2022-10-16T00:16:10;12.40;99.90
8662;DHT22;29684;47.722;9.388;2022-10-16T00:18:55;11.10;99.90
8662;DHT22;29684;47.722;9.388;2022-10-16T00:21:39;12.30;99.90
8662;DHT22;29684;47.722;9.388;2022-10-16T00:24:24;12.30;99.90
8662;DHT22;29684;47.722;9.388;2022-10-16T00:27:08;12.30;99.90
8662;DHT22;29684;47.722;9.388;2022-10-16T00:29:52;12.30;99.90
8662;DHT22;29684;47.722;9.388;2022-10-16T00:32:36;12.30;99.90
8662;DHT22;29684;47.722;9.388;2022-10-16T00:35:20;12.20;99.90
8662;DHT22;29684;47.722;9.388;2022-10-16T00:38:04;12.40;99.90
8662;DHT22;29684;47.722;9.388;2022-10-16T00:40:48;12.20;99.90
8662;DHT22;29684;47.722;9.388;2022-10-16T00:43:45;12.30;99.90
8662;DHT22;29684;47.722;9.388;2022-10-16T00:46:40;12.20;99.90
8662;DHT22;29684;47.722;9.388;2022-10-16T00:49:24;12.20;99.90
8662;DHT22;29684;47.722;9.388;2022-10-16T00:52:10;12.20;99.90
8662;DHT22;29684;47.722;9.388;2022-10-16T00:54:54;12.20;99.90
8662;DHT22;29684;47.722;9.388;2022-10-16T00:57:40;12.30;99.90
8662;DHT22;29684;47.722;9.388;2022-10-16T01:00:26;12.40;99.90
8662;DHT22;29684;47.722;9.388;2022-10-16T01:03:32;12.40;99.90
8662;DHT22;29684;47.722;9.388;2022-10-16T01:06:39;12.40;99.90
8662;DHT22;29684;47.722;9.388;2022-10-16T01:12:41;12.40;99.90
8662;DHT22;29684;47.722;9.388;2022-10-16T01:15:59;12.40;99.90
8662;DHT22;29684;47.722;9.388;2022-10-16T01:18:47;12.40;99.90
8662;DHT22;29684;47.722;9.388;2022-10-16T01:21:44;12.60;99.90
8662;DHT22;29684;47.722;9.388;2022-10-16T01:24:40;12.50;99.90
8662;DHT22;29684;47.722;9.388;2022-10-16T01:27:28;12.50;99.90
8662;DHT22;29684;47.722;9.388;2022-10-16T01:30:24;12.60;99.90
8662;DHT22;29684;47.722;9.388;2022-10-16T01:33:18;12.80;99.90
8662;DHT22;29684;47.722;9.388;2022-10-16T01:36:14;12.70;99.90
8662;DHT22;29684;47.722;9.388;2022-10-16T01:39:01;12.70;99.90
8662;DHT22;29684;47.722;9.388;2022-10-16T01:41:54;12.60;99.90
8662;DHT22;29684;47.722;9.388;2022-10-16T01:44:39;12.60;99.90
8662;DHT22;29684;47.722;9.388;2022-10-16T01:47:26;12.30;99.90
8662;DHT22;29684;47.722;9.388;2022-10-16T01:50:12;12.40;99.90
8662;DHT22;29684;47.722;9.388;2022-10-16T01:52:59;12.50;99.90
8662;DHT22;29684;47.722;9.388;2022-10-16T01:55:47;12.60;99.90
8662;DHT22;29684;47.722;9.388;2022-10-16T01:58:36;12.70;99.90
8662;DHT22;29684;47.722;9.388;2022-10-16T02:01:23;12.70;99.90
8662;DHT22;29684;47.722;9.388;2022-10-16T02:04:15;12.70;99.90
8662;DHT22;29684;47.722;9.388;2022-10-16T02:07:01;12.60;99.90
8662;DHT22;29684;47.722;9.388;2022-10-16T02:09:46;12.60;99.90
8662;DHT22;29684;47.722;9.388;2022-10-16T02:12:36;12.50;99.90
8662;DHT22;29684;47.722;9.388;2022-10-16T02:15:23;12.40;99.90
8662;DHT22;29684;47.722;9.388;2022-10-16T02:18:07;12.50;99.90
8662;DHT22;29684;47.722;9.388;2022-10-16T02:21:00;12.60;99.90
8662;DHT22;29684;47.722;9.388;2022-10-16T02:26:55;12.60;99.90
8662;DHT22;29684;47.722;9.388;2022-10-16T02:29:47;12.60;99.90
8662;DHT22;29684;47.722;9.388;2022-10-16T02:32:36;12.70;99.90
8662;DHT22;29684;47.722;9.388;2022-10-16T02:35:23;12.80;99.90
8662;DHT22;29684;47.722;9.388;2022-10-16T02:38:08;12.90;99.90
8662;DHT22;29684;47.722;9.388;2022-10-16T02:40:54;12.90;99.90
8662;DHT22;29684;47.722;9.388;2022-10-16T02:43:39;12.90;99.90
8662;DHT22;29684;47.722;9.388;2022-10-16T02:46:23;12.80;99.90
8662;DHT22;29684;47.722;9.388;2022-10-16T02:49:07;12.70;99.90
8662;DHT22;29684;47.722;9.388;2022-10-16T02:51:51;12.50;99.90
8662;DHT22;29684;47.722;9.388;2022-10-16T02:54:35;12.40;99.90
8662;DHT22;29684;47.722;9.388;2022-10-16T02:57:19;12.40;99.90
8662;DHT22;29684;47.722;9.388;2022-10-16T03:00:08;12.50;99.90
8662;DHT22;29684;47.722;9.388;2022-10-16T03:02:53;12.50;99.90
8662;DHT22;29684;47.722;9.388;2022-10-16T03:05:37;12.60;99.90
8662;DHT22;29684;47.722;9.388;2022-10-16T03:08:21;12.50;99.90
8662;DHT22;29684;47.722;9.388;2022-10-16T03:11:08;12.50;99.90
8662;DHT22;29684;47.722;9.388;2022-10-16T03:13:52;12.60;99.90
8662;DHT22;29684;47.722;9.388;2022-10-16T03:16:36;12.60;99.90
8662;DHT22;29684;47.722;9.388;2022-10-16T03:19:22;12.60;99.90
8662;DHT22;29684;47.722;9.388;2022-10-16T03:22:06;12.70;99.90
8662;DHT22;29684;47.722;9.388;2022-10-16T03:24:50;12.70;99.90
8662;DHT22;29684;47.722;9.388;2022-10-16T03:27:34;12.70;99.90
8662;DHT22;29684;47.722;9.388;2022-10-16T03:30:18;12.70;99.90
8662;DHT22;29684;47.722;9.388;2022-10-16T03:33:02;12.80;99.90
8662;DHT22;29684;47.722;9.388;2022-10-16T03:35:54;12.80;99.90
8662;DHT22;29684;47.722;9.388;2022-10-16T03:38:38;12.90;99.90
8662;DHT22;29684;47.722;9.388;2022-10-16T03:41:22;12.70;99.90
8662;DHT22;29684;47.722;9.388;2022-10-16T03:44:06;12.70;99.90
8662;DHT22;29684;47.722;9.388;2022-10-16T03:46:51;12.70;99.90
8662;DHT22;29684;47.722;9.388;2022-10-16T03:49:35;12.60;99.90
8662;DHT22;29684;47.722;9.388;2022-10-16T03:52:19;12.40;99.90
8662;DHT22;29684;47.722;9.388;2022-10-16T03:55:03;12.30;99.90
8662;DHT22;29684;47.722;9.388;2022-10-16T03:57:48;12.40;99.90
8662;DHT22;29684;47.722;9.388;2022-10-16T04:00:32;12.40;99.90
8662;DHT22;29684;47.722;9.388;2022-10-16T04:03:16;12.20;99.90
8662;DHT22;29684;47.722;9.388;2022-10-16T04:06:01;12.50;99.90
8662;DHT22;29684;47.722;9.388;2022-10-16T04:08:45;12.30;99.90
8662;DHT22;29684;47.722;9.388;2022-10-16T04:11:29;12.30;99.90
8662;DHT22;29684;47.722;9.388;2022-10-16T04:14:13;12.20;99.90
8662;DHT22;29684;47.722;9.388;2022-10-16T04:16:57;12.10;99.90
8662;DHT22;29684;47.722;9.388;2022-10-16T04:19:42;12.00;99.90
8662;DHT22;29684;47.722;9.388;2022-10-16T04:22:26;11.90;99.90
8662;DHT22;29684;47.722;9.388;2022-10-16T04:25:11;11.90;99.90
8662;DHT22;29684;47.722;9.388;2022-10-16T04:27:55;11.80;99.90
8662;DHT22;29684;47.722;9.388;2022-10-16T04:30:40;11.90;99.90
8662;DHT22;29684;47.722;9.388;2022-10-16T04:33:24;12.00;99.90
8662;DHT22;29684;47.722;9.388;2022-10-16T04:36:08;11.90;99.90
8662;DHT22;29684;47.722;9.388;2022-10-16T04:38:55;12.00;99.90
8662;DHT22;29684;47.722;9.388;2022-10-16T04:41:39;12.10;99.90
8662;DHT22;29684;47.722;9.388;2022-10-16T04:44:23;12.00;99.90
8662;DHT22;29684;47.722;9.388;2022-10-16T04:47:07;12.00;99.90
8662;DHT22;29684;47.722;9.388;2022-10-16T04:49:52;12.00;99.90
8662;DHT22;29684;47.722;9.388;2022-10-16T04:52:36;12.00;99.90
8662;DHT22;29684;47.722;9.388;2022-10-16T04:55:20;12.10;99.90
8662;DHT22;29684;47.722;9.388;2022-10-16T04:58:04;11.90;99.90
8662;DHT22;29684;47.722;9.388;2022-10-16T05:00:49;11.90;99.90
8662;DHT22;29684;47.722;9.388;2022-10-16T05:03:33;12.00;99.90
8662;DHT22;29684;47.722;9.388;2022-10-16T05:06:17;12.20;99.90
8662;DHT22;29684;47.722;9.388;2022-10-16T05:09:01;11.90;99.90
8662;DHT22;29684;47.722;9.388;2022-10-16T05:11:45;12.00;99.90
8662;DHT22;29684;47.722;9.388;2022-10-16T05:14:29;12.00;99.90
8662;DHT22;29684;47.722;9.388;2022-10-16T05:17:14;12.10;99.90
8662;DHT22;29684;47.722;9.388;2022-10-16T05:19:58;12.10;99.90
8662;DHT22;29684;47.722;9.388;2022-10-16T05:22:42;12.10;99.90
8662;DHT22;29684;47.722;9.388;2022-10-16T05:25:26;12.10;99.90
8662;DHT22;29684;47.722;9.388;2022-10-16T05:28:10;12.10;99.90
8662;DHT22;29684;47.722;9.388;2022-10-16T05:30:54;12.40;99.90
8662;DHT22;29684;47.722;9.388;2022-10-16T05:33:38;12.30;99.90
8662;DHT22;29684;47.722;9.388;2022-10-16T05:36:22;12.30;99.90
8662;DHT22;29684;47.722;9.388;2022-10-16T05:39:06;12.20;99.90
8662;DHT22;29684;47.722;9.388;2022-10-16T05:41:50;12.20;99.90
8662;DHT22;29684;47.722;9.388;2022-10-16T05:44:34;12.10;99.90
8662;DHT22;29684;47.722;9.388;2022-10-16T05:47:19;12.10;99.90
8662;DHT22;29684;47.722;9.388;2022-10-16T05:50:05;12.20;99.90
8662;DHT22;29684;47.722;9.388;2022-10-16T05:52:49;12.20;99.90
8662;DHT22;29684;47.722;9.388;2022-10-16T05:55:33;12.20;99.90
8662;DHT22;29684;47.722;9.388;2022-10-16T05:58:17;12.20;99.90
8662;DHT22;29684;47.722;9.388;2022-10-16T06:01:10;12.30;99.90
8662;DHT22;29684;47.722;9.388;2022-10-16T06:03:57;12.40;99.90
8662;DHT22;29684;47.722;9.388;2022-10-16T06:06:42;12.50;99.90
8662;DHT22;29684;47.722;9.388;2022-10-16T06:09:26;12.60;99.90
8662;DHT22;29684;47.722;9.388;2022-10-16T06:12:10;12.70;99.90
8662;DHT22;29684;47.722;9.388;2022-10-16T06:14:54;13.00;99.90
8662;DHT22;29684;47.722;9.388;2022-10-16T06:17:38;12.90;99.90
8662;DHT22;29684;47.722;9.388;2022-10-16T06:20:22;13.10;99.90
8662;DHT22;29684;47.722;9.388;2022-10-16T06:23:06;13.20;99.90
8662;DHT22;29684;47.722;9.388;2022-10-16T06:25:51;13.30;99.90
8662;DHT22;29684;47.722;9.388;2022-10-16T06:28:35;13.40;99.90
8662;DHT22;29684;47.722;9.388;2022-10-16T06:31:20;13.50;99.90
8662;DHT22;29684;47.722;9.388;2022-10-16T06:34:04;13.60;99.90
8662;DHT22;29684;47.722;9.388;2022-10-16T06:36:53;13.70;99.90
8662;DHT22;29684;47.722;9.388;2022-10-16T06:39:37;13.90;99.90
8662;DHT22;29684;47.722;9.388;2022-10-16T06:42:21;14.10;99.90
8662;DHT22;29684;47.722;9.388;2022-10-16T06:45:06;14.30;99.90
8662;DHT22;29684;47.722;9.388;2022-10-16T06:47:50;14.40;99.90
8662;DHT22;29684;47.722;9.388;2022-10-16T06:50:34;14.50;99.90
8662;DHT22;29684;47.722;9.388;2022-10-16T06:53:18;14.60;99.90
8662;DHT22;29684;47.722;9.388;2022-10-16T06:56:10;14.70;99.90
8662;DHT22;29684;47.722;9.388;2022-10-16T06:58:55;14.80;99.90
8662;DHT22;29684;47.722;9.388;2022-10-16T07:01:39;14.90;99.90
8662;DHT22;29684;47.722;9.388;2022-10-16T07:04:23;14.90;99.90
8662;DHT22;29684;47.722;9.388;2022-10-16T07:07:07;15.00;99.90
8662;DHT22;29684;47.722;9.388;2022-10-16T07:09:52;15.10;99.90
8662;DHT22;29684;47.722;9.388;2022-10-16T07:12:36;15.10;99.90
8662;DHT22;29684;47.722;9.388;2022-10-16T07:15:20;15.20;99.90
8662;DHT22;29684;47.722;9.388;2022-10-16T07:18:04;15.20;99.90
8662;DHT22;29684;47.722;9.388;2022-10-16T07:20:48;15.30;99.90
8662;DHT22;29684;47.722;9.388;2022-10-16T07:23:32;15.20;99.90
8662;DHT22;29684;47.722;9.388;2022-10-16T07:26:16;14.90;99.90
8662;DHT22;29684;47.722;9.388;2022-10-16T07:29:00;14.60;99.90
8662;DHT22;29684;47.722;9.388;2022-10-16T07:31:45;14.70;99.90
8662;DHT22;29684;47.722;9.388;2022-10-16T07:34:29;14.60;99.90
8662;DHT22;29684;47.722;9.388;2022-10-16T07:37:13;14.50;99.90
8662;DHT22;29684;47.722;9.388;2022-10-16T07:39:57;14.50;99.90
8662;DHT22;29684;47.722;9.388;2022-10-16T07:42:41;14.50;99.90
8662;DHT22;29684;47.722;9.388;2022-10-16T07:45:25;14.60;99.90
8662;DHT22;29684;47.722;9.388;2022-10-16T07:48:09;14.70;99.90
8662;DHT22;29684;47.722;9.388;2022-10-16T07:51:01;14.80;99.90
8662;DHT22;29684;47.722;9.388;2022-10-16T07:53:46;14.80;99.90
8662;DHT22;29684;47.722;9.388;2022-10-16T07:56:31;14.90;99.90
8662;DHT22;29684;47.722;9.388;2022-10-16T07:59:16;15.20;99.90
8662;DHT22;29684;47.722;9.388;2022-10-16T08:02:01;15.60;99.90
8662;DHT22;29684;47.722;9.388;2022-10-16T08:04:46;16.10;99.90
8662;DHT22;29684;47.722;9.388;2022-10-16T08:07:31;16.40;99.90
8662;DHT22;29684;47.722;9.388;2022-10-16T08:10:17;16.70;99.90
8662;DHT22;29684;47.722;9.388;2022-10-16T08:13:02;16.70;99.90
8662;DHT22;29684;47.722;9.388;2022-10-16T08:15:46;16.80;99.90
8662;DHT22;29684;47.722;9.388;2022-10-16T08:18:31;16.70;99.90
8662;DHT22;29684;47.722;9.388;2022-10-16T08:21:17;16.80;99.90
8662;DHT22;29684;47.722;9.388;2022-10-16T08:24:02;17.00;99.90
8662;DHT22;29684;47.722;9.388;2022-10-16T08:26:46;17.10;99.90
8662;DHT22;29684;47.722;9.388;2022-10-16T08:29:31;17.30;99.90
8662;DHT22;29684;47.722;9.388;2022-10-16T08:32:15;17.50;99.90
8662;DHT22;29684;47.722;9.388;2022-10-16T08:34:59;17.80;99.90
8662;DHT22;29684;47.722;9.388;2022-10-16T08:37:43;18.10;99.90
8662;DHT22;29684;47.722;9.388;2022-10-16T08:40:30;18.40;99.90
8662;DHT22;29684;47.722;9.388;2022-10-16T08:43:28;18.50;99.90
8662;DHT22;29684;47.722;9.388;2022-10-16T08:46:29;18.70;99.90
8662;DHT22;29684;47.722;9.388;2022-10-16T08:49:17;18.70;99.90
8662;DHT22;29684;47.722;9.388;2022-10-16T08:52:02;18.70;99.90
8662;DHT22;29684;47.722;9.388;2022-10-16T08:54:50;19.00;99.90
8662;DHT22;29684;47.722;9.388;2022-10-16T08:57:35;19.20;99.90
8662;DHT22;29684;47.722;9.388;2022-10-16T09:00:19;19.10;99.90
8662;DHT22;29684;47.722;9.388;2022-10-16T09:03:13;19.20;99.90
8662;DHT22;29684;47.722;9.388;2022-10-16T09:09:16;19.30;99.90
8662;DHT22;29684;47.722;9.388;2022-10-16T09:12:15;19.00;99.90
8662;DHT22;29684;47.722;9.388;2022-10-16T09:18:38;18.70;99.90
8662;DHT22;29684;47.722;9.388;2022-10-16T09:21:36;18.70;99.90
8662;DHT22;29684;47.722;9.388;2022-10-16T09:24:25;19.00;99.90
8662;DHT22;29684;47.722;9.388;2022-10-16T09:27:14;19.30;99.90
8662;DHT22;29684;47.722;9.388;2022-10-16T09:30:10;19.40;99.90
8662;DHT22;29684;47.722;9.388;2022-10-16T09:32:55;19.60;99.90
8662;DHT22;29684;47.722;9.388;2022-10-16T09:35:44;20.10;99.90
8662;DHT22;29684;47.722;9.388;2022-10-16T09:38:32;20.40;99.90
8662;DHT22;29684;47.722;9.388;2022-10-16T09:41:21;20.50;99.90
8662;DHT22;29684;47.722;9.388;2022-10-16T09:44:26;20.10;99.90
8662;DHT22;29684;47.722;9.388;2022-10-16T09:47:28;19.80;99.90
8662;DHT22;29684;47.722;9.388;2022-10-16T09:50:23;19.90;99.90
8662;DHT22;29684;47.722;9.388;2022-10-16T09:53:13;20.20;99.90
8662;DHT22;29684;47.722;9.388;2022-10-16T09:55:57;20.10;99.90
8662;DHT22;29684;47.722;9.388;2022-10-16T09:58:43;20.30;99.90
8662;DHT22;29684;47.722;9.388;2022-10-16T10:01:36;20.70;99.90
8662;DHT22;29684;47.722;9.388;2022-10-16T10:04:23;20.90;99.90
8662;DHT22;29684;47.722;9.388;2022-10-16T10:07:18;21.00;99.90
8662;DHT22;29684;47.722;9.388;2022-10-16T10:10:04;21.30;99.90
8662;DHT22;29684;47.722;9.388;2022-10-16T10:12:49;21.70;99.90
8662;DHT22;29684;47.722;9.388;2022-10-16T10:15:41;21.80;99.90
8662;DHT22;29684;47.722;9.388;2022-10-16T10:18:25;22.00;99.90
8662;DHT22;29684;47.722;9.388;2022-10-16T10:21:14;22.40;99.90
8662;DHT22;29684;47.722;9.388;2022-10-16T10:23:58;22.40;99.90
8662;DHT22;29684;47.722;9.388;2022-10-16T10:26:57;22.20;99.90
8662;DHT22;29684;47.722;9.388;2022-10-16T10:30:18;21.60;99.90
8662;DHT22;29684;47.722;9.388;2022-10-16T10:36:16;21.70;99.90
8662;DHT22;29684;47.722;9.388;2022-10-16T10:39:15;21.80;99.90
8662;DHT22;29684;47.722;9.388;2022-10-16T10:42:35;21.80;99.90
8662;DHT22;29684;47.722;9.388;2022-10-16T10:45:27;21.70;99.90
8662;DHT22;29684;47.722;9.388;2022-10-16T10:51:22;22.10;99.90
8662;DHT22;29684;47.722;9.388;2022-10-16T11:00:49;23.10;99.90
8662;DHT22;29684;47.722;9.388;2022-10-16T11:03:53;23.10;99.90
8662;DHT22;29684;47.722;9.388;2022-10-16T11:06:51;23.40;99.90
8662;DHT22;29684;47.722;9.388;2022-10-16T11:09:57;23.00;99.90
8662;DHT22;29684;47.722;9.388;2022-10-16T11:12:51;23.30;99.90
8662;DHT22;29684;47.722;9.388;2022-10-16T11:15:39;23.30;99.90
8662;DHT22;29684;47.722;9.388;2022-10-16T11:18:33;23.80;99.90
8662;DHT22;29684;47.722;9.388;2022-10-16T11:21:23;24.00;99.90
8662;DHT22;29684;47.722;9.388;2022-10-16T11:24:44;24.20;99.90
8662;DHT22;29684;47.722;9.388;2022-10-16T11:27:52;24.40;99.90
8662;DHT22;29684;47.722;9.388;2022-10-16T11:30:51;24.70;99.90
8662;DHT22;29684;47.722;9.388;2022-10-16T11:33:41;25.20;99.90
8662;DHT22;29684;47.722;9.388;2022-10-16T11:39:34;25.80;99.90
8662;DHT22;29684;47.722;9.388;2022-10-16T11:42:25;26.20;99.90
8662;DHT22;29684;47.722;9.388;2022-10-16T11:57:40;26.60;99.90
8662;DHT22;29684;47.722;9.388;2022-10-16T12:00:31;27.60;99.90
8662;DHT22;29684;47.722;9.388;2022-10-16T12:03:39;29.30;99.90
8662;DHT22;29684;47.722;9.388;2022-10-16T12:09:15;31.10;99.90
8662;DHT22;29684;47.722;9.388;2022-10-16T12:12:00;30.80;99.90
8662;DHT22;29684;47.722;9.388;2022-10-16T12:14:45;31.40;99.90
8662;DHT22;29684;47.722;9.388;2022-10-16T12:17:37;31.10;99.90
8662;DHT22;29684;47.722;9.388;2022-10-16T12:20:23;31.50;99.90
8662;DHT22;29684;47.722;9.388;2022-10-16T12:23:20;32.00;98.40
8662;DHT22;29684;47.722;9.388;2022-10-16T12:26:06;31.40;97.40
8662;DHT22;29684;47.722;9.388;2022-10-16T12:28:50;29.60;99.00
8662;DHT22;29684;47.722;9.388;2022-10-16T12:31:46;29.40;99.80
8662;DHT22;29684;47.722;9.388;2022-10-16T12:34:58;28.90;99.10
8662;DHT22;29684;47.722;9.388;2022-10-16T12:37:42;28.50;99.90
8662;DHT22;29684;47.722;9.388;2022-10-16T12:40:30;27.90;99.90
8662;DHT22;29684;47.722;9.388;2022-10-16T12:43:34;27.70;99.90
8662;DHT22;29684;47.722;9.388;2022-10-16T12:51:57;29.50;99.00
8662;DHT22;29684;47.722;9.388;2022-10-16T12:54:42;29.00;98.20
8662;DHT22;29684;47.722;9.388;2022-10-16T12:58:09;29.10;98.40
8662;DHT22;29684;47.722;9.388;2022-10-16T13:04:31;28.70;99.10
8662;DHT22;29684;47.722;9.388;2022-10-16T13:23:04;30.10;99.90
8662;DHT22;29684;47.722;9.388;2022-10-16T13:29:03;31.70;99.90
8662;DHT22;29684;47.722;9.388;2022-10-16T13:31:48;32.30;99.90
8662;DHT22;29684;47.722;9.388;2022-10-16T13:34:32;31.40;99.90
8662;DHT22;29684;47.722;9.388;2022-10-16T13:37:26;30.60;99.90
8662;DHT22;29684;47.722;9.388;2022-10-16T13:40:31;30.00;99.90
8662;DHT22;29684;47.722;9.388;2022-10-16T13:43:21;29.40;99.90
8662;DHT22;29684;47.722;9.388;2022-10-16T13:46:14;29.60;99.90
8662;DHT22;29684;47.722;9.388;2022-10-16T13:49:12;30.00;99.90
8662;DHT22;29684;47.722;9.388;2022-10-16T13:52:00;29.90;99.90
8662;DHT22;29684;47.722;9.388;2022-10-16T13:54:45;29.60;99.90
8662;DHT22;29684;47.722;9.388;2022-10-16T13:57:30;30.00;99.90
8662;DHT22;29684;47.722;9.388;2022-10-16T14:00:24;30.80;99.90
8662;DHT22;29684;47.722;9.388;2022-10-16T14:03:14;31.70;99.20
8662;DHT22;29684;47.722;9.388;2022-10-16T14:06:01;32.50;96.50
8662;DHT22;29684;47.722;9.388;2022-10-16T14:09:35;32.20;98.00
8662;DHT22;29684;47.722;9.388;2022-10-16T14:14:46;30.90;98.60
8662;DHT22;29684;47.722;9.388;2022-10-16T14:17:33;31.50;98.60
8662;DHT22;29684;47.722;9.388;2022-10-16T14:20:22;32.30;97.80
8662;DHT22;29684;47.722;9.388;2022-10-16T14:26:13;32.30;96.80
8662;DHT22;29684;47.722;9.388;2022-10-16T14:29:09;32.50;96.80
8662;DHT22;29684;47.722;9.388;2022-10-16T14:34:40;33.00;96.30
8662;DHT22;29684;47.722;9.388;2022-10-16T14:37:27;32.90;91.80
8662;DHT22;29684;47.722;9.388;2022-10-16T14:40:14;32.10;92.50
8662;DHT22;29684;47.722;9.388;2022-10-16T14:43:00;32.20;92.30
8662;DHT22;29684;47.722;9.388;2022-10-16T14:45:51;32.20;91.50
8662;DHT22;29684;47.722;9.388;2022-10-16T14:48:44;31.80;92.10
8662;DHT22;29684;47.722;9.388;2022-10-16T14:51:30;31.70;91.30
8662;DHT22;29684;47.722;9.388;2022-10-16T14:54:16;32.00;92.40
8662;DHT22;29684;47.722;9.388;2022-10-16T14:57:01;32.70;92.50
8662;DHT22;29684;47.722;9.388;2022-10-16T14:59:46;32.00;90.90
8662;DHT22;29684;47.722;9.388;2022-10-16T15:02:35;31.10;92.00
8662;DHT22;29684;47.722;9.388;2022-10-16T15:05:26;30.30;92.40
8662;DHT22;29684;47.722;9.388;2022-10-16T15:08:10;29.10;93.20
8662;DHT22;29684;47.722;9.388;2022-10-16T15:10:56;28.10;93.80
8662;DHT22;29684;47.722;9.388;2022-10-16T15:13:40;27.90;94.00
8662;DHT22;29684;47.722;9.388;2022-10-16T15:16:24;27.50;94.60
8662;DHT22;29684;47.722;9.388;2022-10-16T15:19:08;27.10;95.00
8662;DHT22;29684;47.722;9.388;2022-10-16T15:21:52;26.40;95.50
8662;DHT22;29684;47.722;9.388;2022-10-16T15:24:36;26.40;95.40
8662;DHT22;29684;47.722;9.388;2022-10-16T15:27:21;26.20;95.70
8662;DHT22;29684;47.722;9.388;2022-10-16T15:30:05;25.70;95.80
8662;DHT22;29684;47.722;9.388;2022-10-16T15:32:49;25.50;97.10
8662;DHT22;29684;47.722;9.388;2022-10-16T15:35:33;25.50;99.70
8662;DHT22;29684;47.722;9.388;2022-10-16T15:38:20;25.00;99.90
8662;DHT22;29684;47.722;9.388;2022-10-16T15:41:05;24.60;99.90
8662;DHT22;29684;47.722;9.388;2022-10-16T15:43:49;24.20;99.90
8662;DHT22;29684;47.722;9.388;2022-10-16T15:46:34;23.90;99.90
8662;DHT22;29684;47.722;9.388;2022-10-16T15:49:18;23.70;99.90
8662;DHT22;29684;47.722;9.388;2022-10-16T15:52:03;23.50;99.90
8662;DHT22;29684;47.722;9.388;2022-10-16T15:54:47;23.20;99.90
8662;DHT22;29684;47.722;9.388;2022-10-16T15:57:31;22.80;99.90
8662;DHT22;29684;47.722;9.388;2022-10-16T16:00:17;22.50;99.90
8662;DHT22;29684;47.722;9.388;2022-10-16T16:03:02;22.30;99.90
8662;DHT22;29684;47.722;9.388;2022-10-16T16:05:46;21.90;99.90
8662;DHT22;29684;47.722;9.388;2022-10-16T16:08:30;21.70;99.90
8662;DHT22;29684;47.722;9.388;2022-10-16T16:11:16;21.50;99.90
8662;DHT22;29684;47.722;9.388;2022-10-16T16:14:00;21.30;99.90
8662;DHT22;29684;47.722;9.388;2022-10-16T16:16:44;21.20;99.90
8662;DHT22;29684;47.722;9.388;2022-10-16T16:19:28;21.20;99.90
8662;DHT22;29684;47.722;9.388;2022-10-16T16:22:13;21.10;99.90
8662;DHT22;29684;47.722;9.388;2022-10-16T16:24:56;20.90;99.90
8662;DHT22;29684;47.722;9.388;2022-10-16T16:27:41;20.50;99.90
8662;DHT22;29684;47.722;9.388;2022-10-16T16:30:24;20.30;99.90
8662;DHT22;29684;47.722;9.388;2022-10-16T16:33:09;20.10;99.90
8662;DHT22;29684;47.722;9.388;2022-10-16T16:36:03;19.90;99.90
8662;DHT22;29684;47.722;9.388;2022-10-16T16:38:48;19.70;99.90
8662;DHT22;29684;47.722;9.388;2022-10-16T16:41:32;19.60;99.90
8662;DHT22;29684;47.722;9.388;2022-10-16T16:44:17;20.20;99.90
8662;DHT22;29684;47.722;9.388;2022-10-16T16:47:02;19.30;99.90
8662;DHT22;29684;47.722;9.388;2022-10-16T16:49:47;19.00;99.90
8662;DHT22;29684;47.722;9.388;2022-10-16T16:52:31;18.80;99.90
8662;DHT22;29684;47.722;9.388;2022-10-16T16:55:15;18.60;99.90
8662;DHT22;29684;47.722;9.388;2022-10-16T16:57:59;18.60;99.90
8662;DHT22;29684;47.722;9.388;2022-10-16T17:00:47;18.30;99.90
8662;DHT22;29684;47.722;9.388;2022-10-16T17:03:33;18.20;99.90
8662;DHT22;29684;47.722;9.388;2022-10-16T17:06:20;17.90;99.90
8662;DHT22;29684;47.722;9.388;2022-10-16T17:09:05;17.70;99.90
8662;DHT22;29684;47.722;9.388;2022-10-16T17:11:49;17.60;99.90
8662;DHT22;29684;47.722;9.388;2022-10-16T17:14:34;17.40;99.90
8662;DHT22;29684;47.722;9.388;2022-10-16T17:17:18;17.30;99.90
8662;DHT22;29684;47.722;9.388;2022-10-16T17:20:02;17.10;99.90
8662;DHT22;29684;47.722;9.388;2022-10-16T17:22:46;17.00;99.90
8662;DHT22;29684;47.722;9.388;2022-10-16T17:25:30;16.80;99.90
8662;DHT22;29684;47.722;9.388;2022-10-16T17:28:14;16.80;99.90
8662;DHT22;29684;47.722;9.388;2022-10-16T17:31:11;16.70;99.90
8662;DHT22;29684;47.722;9.388;2022-10-16T17:33:57;16.60;99.90
8662;DHT22;29684;47.722;9.388;2022-10-16T17:36:42;16.50;99.90
8662;DHT22;29684;47.722;9.388;2022-10-16T17:39:27;16.40;99.90
8662;DHT22;29684;47.722;9.388;2022-10-16T17:42:11;16.40;99.90
8662;DHT22;29684;47.722;9.388;2022-10-16T17:44:55;16.30;99.90
8662;DHT22;29684;47.722;9.388;2022-10-16T17:47:39;16.10;99.90
8662;DHT22;29684;47.722;9.388;2022-10-16T17:50:26;16.00;99.90
8662;DHT22;29684;47.722;9.388;2022-10-16T17:53:10;16.00;99.90
8662;DHT22;29684;47.722;9.388;2022-10-16T17:55:54;15.90;99.90
8662;DHT22;29684;47.722;9.388;2022-10-16T17:58:42;15.80;99.90
8662;DHT22;29684;47.722;9.388;2022-10-16T18:01:35;15.80;99.90
8662;DHT22;29684;47.722;9.388;2022-10-16T18:04:19;15.80;99.90
8662;DHT22;29684;47.722;9.388;2022-10-16T18:07:03;15.70;99.90
8662;DHT22;29684;47.722;9.388;2022-10-16T18:09:47;15.60;99.90
8662;DHT22;29684;47.722;9.388;2022-10-16T18:12:32;15.50;99.90
8662;DHT22;29684;47.722;9.388;2022-10-16T18:15:16;15.40;99.90
8662;DHT22;29684;47.722;9.388;2022-10-16T18:18:00;15.30;99.90
8662;DHT22;29684;47.722;9.388;2022-10-16T18:20:44;15.30;99.90
8662;DHT22;29684;47.722;9.388;2022-10-16T18:23:29;15.20;99.90
8662;DHT22;29684;47.722;9.388;2022-10-16T18:26:14;15.10;99.90
8662;DHT22;29684;47.722;9.388;2022-10-16T18:28:59;15.10;99.90
8662;DHT22;29684;47.722;9.388;2022-10-16T18:31:45;15.00;99.90
8662;DHT22;29684;47.722;9.388;2022-10-16T18:34:29;14.90;99.90
8662;DHT22;29684;47.722;9.388;2022-10-16T18:37:13;14.90;99.90
8662;DHT22;29684;47.722;9.388;2022-10-16T18:39:58;14.80;99.90
8662;DHT22;29684;47.722;9.388;2022-10-16T18:42:42;14.80;99.90
8662;DHT22;29684;47.722;9.388;2022-10-16T18:45:27;14.70;99.90
8662;DHT22;29684;47.722;9.388;2022-10-16T18:48:11;14.70;99.90
8662;DHT22;29684;47.722;9.388;2022-10-16T18:51:19;14.60;99.90
8662;DHT22;29684;47.722;9.388;2022-10-16T18:54:07;14.60;99.90
8662;DHT22;29684;47.722;9.388;2022-10-16T18:56:51;14.60;99.90
8662;DHT22;29684;47.722;9.388;2022-10-16T18:59:36;14.50;99.90
8662;DHT22;29684;47.722;9.388;2022-10-16T19:02:22;14.40;99.90
8662;DHT22;29684;47.722;9.388;2022-10-16T19:05:06;14.30;99.90
8662;DHT22;29684;47.722;9.388;2022-10-16T19:07:52;14.30;99.90
8662;DHT22;29684;47.722;9.388;2022-10-16T19:10:36;14.30;99.90
8662;DHT22;29684;47.722;9.388;2022-10-16T19:13:20;14.20;99.90
8662;DHT22;29684;47.722;9.388;2022-10-16T19:16:13;14.30;99.90